createdAt,value
2019-01-16T00:00:43.733Z,93.08
2019-01-16T00:03:39.000Z,92.68
2019-01-16T00:06:26.994Z,92.17
2019-01-16T00:09:33.282Z,90.56
2019-01-16T00:12:18.388Z,90.41
2019-01-16T00:14:55.823Z,89.40
2019-01-16T00:17:56.061Z,89.94
2019-01-16T00:20:46.877Z,89.93
2019-01-16T00:23:32.166Z,89.34
2019-01-16T00:26:21.714Z,89.72
2019-01-16T00:29:24.938Z,88.90
2019-01-16T00:32:11.829Z,88.66
2019-01-16T00:34:56.915Z,89.76
2019-01-16T00:37:43.813Z,88.88
2019-01-16T00:40:31.147Z,88.29
2019-01-16T00:43:10.391Z,88.22
2019-01-16T00:46:06.529Z,87.04
2019-01-16T00:49:12.780Z,87.31
2019-01-16T00:52:04.771Z,87.83
2019-01-16T00:55:10.915Z,88.02
2019-01-16T00:57:58.967Z,87.51
2019-01-16T01:00:50.969Z,85.56
2019-01-16T01:03:41.787Z,85.96
2019-01-16T01:06:34.807Z,86.23
2019-01-16T01:09:23.020Z,86.37
2019-01-16T01:12:20.015Z,86.05
2019-01-16T01:15:13.813Z,84.53
2019-01-16T01:17:54.431Z,84.35
2019-01-16T01:20:48.674Z,84.76
2019-01-16T01:23:33.499Z,84.82
2019-01-16T01:26:20.310Z,84.70
2019-01-16T01:29:10.524Z,82.52
2019-01-16T01:31:49.642Z,81.92
2019-01-16T01:34:36.614Z,82.12
2019-01-16T01:37:41.586Z,81.85
2019-01-16T01:40:30.159Z,81.01
2019-01-16T01:43:24.066Z,80.34
2019-01-16T01:46:15.145Z,80.63
2019-01-16T01:49:02.038Z,81.37
2019-01-16T01:51:56.102Z,81.38
2019-01-16T01:54:42.683Z,81.58
2019-01-16T01:57:20.820Z,80.42
2019-01-16T02:00:16.333Z,80.62
2019-01-16T02:03:04.413Z,80.79
2019-01-16T02:05:50.965Z,80.15
2019-01-16T02:08:33.983Z,81.36
2019-01-16T02:11:24.748Z,81.09
2019-01-16T02:14:07.173Z,80.06
2019-01-16T02:16:54.431Z,80.54
2019-01-16T02:19:41.278Z,80.30
2019-01-16T02:22:28.131Z,80.26
2019-01-16T02:25:09.620Z,79.64
2019-01-16T02:28:03.444Z,79.65
2019-01-16T02:30:51.371Z,79.02
2019-01-16T02:33:57.572Z,79.50
2019-01-16T02:36:48.691Z,79.07
2019-01-16T02:39:36.654Z,80.22
2019-01-16T02:42:23.659Z,79.21
2019-01-16T02:45:17.748Z,80.26
2019-01-16T02:48:08.786Z,78.28
2019-01-16T02:50:56.713Z,79.06
2019-01-16T02:53:50.611Z,79.58
2019-01-16T02:56:31.969Z,79.04
2019-01-16T02:59:25.796Z,79.21
2019-01-16T03:02:16.878Z,79.63
2019-01-16T03:05:20.221Z,79.84
2019-01-16T03:08:14.414Z,79.75
2019-01-16T03:10:53.593Z,79.83
2019-01-16T03:13:35.147Z,79.29
2019-01-16T03:16:21.860Z,79.16
2019-01-16T03:19:22.356Z,79.40
2019-01-16T03:22:16.115Z,79.69
2019-01-16T03:25:13.268Z,80.12
2019-01-16T03:28:10.294Z,80.42
2019-01-16T03:31:07.090Z,79.78
2019-01-16T03:33:47.387Z,80.78
2019-01-16T03:36:27.001Z,80.38
2019-01-16T03:39:15.313Z,80.27
2019-01-16T03:42:15.387Z,80.57
2019-01-16T03:44:55.222Z,80.73
2019-01-16T03:47:43.072Z,80.69
2019-01-16T03:50:29.688Z,79.80
2019-01-16T03:53:17.672Z,80.75
2019-01-16T03:56:06.273Z,80.39
2019-01-16T03:58:53.142Z,80.30
2019-01-16T04:01:40.875Z,80.54
2019-01-16T04:04:18.614Z,80.75
2019-01-16T04:07:06.618Z,80.00
2019-01-16T04:09:57.743Z,80.39
2019-01-16T04:12:45.670Z,79.83
2019-01-16T04:15:48.826Z,80.57
2019-01-16T04:18:35.382Z,80.27
2019-01-16T04:21:20.433Z,80.38
2019-01-16T04:24:04.802Z,80.49
2019-01-16T04:26:51.509Z,79.50
2019-01-16T04:29:38.542Z,80.71
2019-01-16T04:32:41.822Z,79.87
2019-01-16T04:35:19.128Z,80.18
2019-01-16T04:38:04.539Z,80.06
2019-01-16T04:41:00.009Z,79.90
2019-01-16T04:43:47.166Z,80.18
2019-01-16T04:46:44.323Z,79.59
2019-01-16T04:49:41.054Z,80.47
2019-01-16T04:52:29.219Z,79.90
2019-01-16T04:55:28.106Z,79.93
2019-01-16T04:58:19.210Z,80.59
2019-01-16T05:01:02.567Z,79.43
2019-01-16T05:03:44.359Z,80.34
2019-01-16T05:06:32.793Z,80.25
2019-01-16T05:09:33.635Z,80.52
2019-01-16T05:12:24.746Z,80.45
2019-01-16T05:15:08.480Z,80.65
2019-01-16T05:18:05.717Z,79.89
2019-01-16T05:20:52.158Z,80.17
2019-01-16T05:23:43.403Z,81.16
2019-01-16T05:26:31.577Z,81.11
2019-01-16T05:29:18.897Z,80.65
2019-01-16T05:32:19.620Z,80.95
2019-01-16T05:35:10.851Z,81.67
2019-01-16T05:37:59.262Z,81.51
2019-01-16T05:40:59.463Z,80.64
2019-01-16T05:43:47.787Z,80.41
2019-01-16T05:46:48.021Z,80.15
2019-01-16T05:49:29.532Z,80.61
2019-01-16T05:52:16.223Z,81.32
2019-01-16T05:55:06.423Z,81.03
2019-01-16T05:57:53.113Z,81.22
2019-01-16T06:00:41.111Z,80.55
2019-01-16T06:03:33.071Z,81.76
2019-01-16T06:06:21.065Z,81.41
2019-01-16T06:09:09.084Z,80.84
2019-01-16T06:12:12.315Z,81.37
2019-01-16T06:14:54.888Z,81.04
2019-01-16T06:17:30.247Z,81.17
2019-01-16T06:20:18.080Z,81.83
2019-01-16T06:23:24.240Z,80.85
2019-01-16T06:26:09.078Z,81.15
2019-01-16T06:29:07.950Z,81.93
2019-01-16T06:31:56.936Z,82.35
2019-01-16T06:34:53.937Z,83.12
2019-01-16T06:37:40.938Z,81.94
2019-01-16T06:40:28.108Z,81.84
2019-01-16T06:43:26.309Z,81.68
2019-01-16T06:46:08.689Z,81.57
2019-01-16T06:48:52.815Z,81.25
2019-01-16T06:51:40.762Z,81.28
2019-01-16T06:54:28.754Z,82.19
2019-01-16T06:57:08.207Z,82.39
2019-01-16T06:59:53.731Z,81.02
2019-01-16T07:02:41.795Z,80.97
2019-01-16T07:05:39.050Z,80.94
2019-01-16T07:08:27.178Z,81.11
2019-01-16T07:11:22.180Z,81.24
2019-01-16T07:14:08.686Z,81.59
2019-01-16T07:17:02.594Z,81.12
2019-01-16T07:19:50.127Z,81.57
2019-01-16T07:22:50.262Z,81.62
2019-01-16T07:25:44.341Z,80.94
2019-01-16T07:28:44.516Z,81.59
2019-01-16T07:31:41.553Z,81.12
2019-01-16T07:34:22.174Z,81.10
2019-01-16T07:37:08.157Z,81.08
2019-01-16T07:40:02.164Z,80.27
2019-01-16T07:42:54.383Z,81.08
2019-01-16T07:45:43.998Z,80.24
2019-01-16T07:48:27.488Z,80.43
2019-01-16T07:51:27.866Z,80.85
2019-01-16T07:54:14.659Z,80.60
2019-01-16T07:57:02.699Z,81.35
2019-01-16T08:00:03.822Z,81.45
2019-01-16T08:03:00.782Z,80.66
2019-01-16T08:05:47.784Z,80.53
2019-01-16T08:08:47.898Z,80.46
2019-01-16T08:11:40.948Z,80.82
2019-01-16T08:14:28.851Z,81.31
2019-01-16T08:17:26.156Z,81.53
2019-01-16T08:20:12.813Z,80.69
2019-01-16T08:23:15.266Z,80.89
2019-01-16T08:26:24.109Z,81.13
2019-01-16T08:29:18.650Z,81.57
2019-01-16T08:31:53.721Z,80.51
2019-01-16T08:34:40.519Z,80.95
2019-01-16T08:37:28.531Z,80.37
2019-01-16T08:40:34.304Z,79.58
2019-01-16T08:43:18.042Z,80.27
2019-01-16T08:46:08.911Z,80.73
2019-01-16T08:48:59.653Z,81.65
2019-01-16T08:51:40.792Z,80.56
2019-01-16T08:54:27.241Z,80.48
2019-01-16T08:57:14.126Z,80.15
2019-01-16T09:00:05.746Z,80.90
2019-01-16T09:02:55.828Z,79.24
2019-01-16T09:05:59.070Z,77.84
2019-01-16T09:09:05.264Z,80.00
2019-01-16T09:11:57.143Z,77.90
2019-01-16T09:14:46.871Z,79.79
2019-01-16T09:17:37.963Z,79.38
2019-01-16T09:20:21.151Z,78.10
2019-01-16T09:23:10.183Z,79.62
2019-01-16T09:25:56.872Z,78.63
2019-01-16T09:28:50.411Z,78.08
2019-01-16T09:31:41.531Z,78.05
2019-01-16T09:34:32.596Z,77.96
2019-01-16T09:37:23.636Z,77.37
2019-01-16T09:40:17.287Z,77.74
2019-01-16T09:43:20.486Z,77.53
2019-01-16T09:46:07.356Z,75.34
2019-01-16T09:49:06.801Z,76.93
2019-01-16T09:51:53.576Z,76.60
2019-01-16T09:54:43.613Z,76.22
2019-01-16T09:57:37.781Z,76.65
2019-01-16T10:00:39.572Z,77.46
2019-01-16T10:03:38.360Z,76.59
2019-01-16T10:06:25.046Z,76.73
2019-01-16T10:09:11.604Z,75.54
2019-01-16T10:12:12.477Z,74.49
2019-01-16T10:15:03.521Z,73.85
2019-01-16T10:17:42.164Z,75.69
2019-01-16T10:20:33.422Z,72.24
2019-01-16T10:26:18.493Z,73.90
2019-01-16T10:29:06.770Z,73.92
2019-01-16T10:32:04.031Z,73.60
2019-01-16T10:34:47.559Z,72.56
2019-01-16T10:37:43.256Z,71.36
2019-01-16T10:40:43.588Z,71.29
2019-01-16T10:43:42.231Z,72.09
2019-01-16T10:46:39.616Z,71.28
2019-01-16T10:49:45.719Z,71.50
2019-01-16T10:52:26.149Z,70.66
2019-01-16T10:55:17.732Z,70.78
2019-01-16T10:58:08.815Z,69.67
2019-01-16T11:00:55.767Z,71.53
2019-01-16T11:03:42.530Z,70.59
2019-01-16T11:06:32.643Z,72.68
2019-01-16T11:09:19.374Z,71.88
2019-01-16T11:12:07.413Z,70.22
2019-01-16T11:15:03.925Z,70.60
2019-01-16T11:17:50.991Z,69.17
2019-01-16T11:20:41.848Z,69.56
2019-01-16T11:23:42.453Z,69.03
2019-01-16T11:26:30.492Z,68.33
2019-01-16T11:29:18.531Z,68.33
2019-01-16T11:32:06.540Z,67.22
2019-01-16T11:34:54.633Z,66.74
2019-01-16T11:37:38.279Z,68.61
2019-01-16T11:40:26.707Z,67.86
2019-01-16T11:43:23.863Z,68.84
2019-01-16T11:46:20.947Z,68.84
2019-01-16T11:49:16.385Z,68.87
2019-01-16T11:52:03.408Z,67.61
2019-01-16T11:54:54.209Z,66.09
2019-01-16T11:57:54.486Z,66.54
2019-01-16T12:00:44.195Z,66.23
2019-01-16T12:03:38.052Z,67.09
2019-01-16T12:06:20.774Z,66.65
2019-01-16T12:09:11.577Z,67.90
2019-01-16T12:11:48.173Z,65.42
2019-01-16T12:14:33.732Z,64.71
2019-01-16T12:17:32.745Z,64.47
2019-01-16T12:20:19.456Z,64.87
2019-01-16T12:23:12.655Z,64.83
2019-01-16T12:25:54.137Z,65.31
2019-01-16T12:28:40.940Z,65.30
2019-01-16T12:31:30.139Z,64.25
2019-01-16T12:34:12.413Z,64.29
2019-01-16T12:37:03.433Z,64.39
2019-01-16T12:39:50.767Z,66.73
2019-01-16T12:42:45.778Z,65.81
2019-01-16T12:45:35.746Z,64.68
2019-01-16T12:48:12.759Z,66.31
2019-01-16T12:51:07.060Z,65.42
2019-01-16T12:53:50.254Z,66.44
2019-01-16T12:56:34.829Z,66.56
2019-01-16T12:59:02.950Z,66.91
2019-01-16T13:01:45.216Z,66.68
2019-01-16T13:04:33.099Z,67.23
2019-01-16T13:07:36.160Z,66.15
2019-01-16T13:10:40.109Z,66.46
2019-01-16T13:13:27.750Z,65.70
2019-01-16T13:16:14.697Z,66.37
2019-01-16T13:18:55.952Z,66.87
2019-01-16T13:21:42.534Z,67.73
2019-01-16T13:24:30.432Z,68.15
2019-01-16T13:27:21.478Z,67.38
2019-01-16T13:30:08.279Z,68.00
2019-01-16T13:32:58.657Z,67.49
2019-01-16T13:35:41.073Z,66.84
2019-01-16T13:38:20.732Z,66.86
2019-01-16T13:41:09.332Z,66.98
2019-01-16T13:43:54.897Z,66.98
2019-01-16T13:46:52.562Z,67.12
2019-01-16T13:49:43.396Z,66.17
2019-01-16T13:52:43.104Z,67.12
2019-01-16T13:55:45.509Z,67.30
2019-01-16T13:58:36.333Z,68.30
2019-01-16T14:01:27.247Z,68.69
2019-01-16T14:04:11.143Z,68.81
2019-01-16T14:07:01.878Z,69.63
2019-01-16T14:10:02.301Z,68.57
2019-01-16T14:12:48.998Z,69.33
2019-01-16T14:15:42.951Z,69.91
2019-01-16T14:18:22.348Z,70.18
2019-01-16T14:21:05.181Z,69.29
2019-01-16T14:23:52.063Z,69.71
2019-01-16T14:26:39.035Z,70.10
2019-01-16T14:29:24.351Z,71.51
2019-01-16T14:32:12.361Z,70.37
2019-01-16T14:35:03.164Z,71.53
2019-01-16T14:37:50.811Z,71.10
2019-01-16T14:40:35.141Z,70.72
2019-01-16T14:43:22.148Z,70.60
2019-01-16T14:46:14.526Z,70.92
2019-01-16T14:48:56.374Z,72.02
2019-01-16T14:51:32.952Z,72.20
2019-01-16T14:54:19.835Z,72.22
2019-01-16T14:57:13.801Z,72.09
2019-01-16T15:00:13.785Z,72.26
2019-01-16T15:03:00.445Z,73.06
2019-01-16T15:05:55.369Z,72.47
2019-01-16T15:08:48.562Z,73.30
2019-01-16T15:11:36.645Z,73.30
2019-01-16T15:14:23.403Z,73.01
2019-01-16T15:17:32.081Z,73.12
2019-01-16T15:20:18.764Z,74.87
2019-01-16T15:23:05.758Z,74.27
2019-01-16T15:25:49.879Z,73.59
2019-01-16T15:28:36.611Z,74.90
2019-01-16T15:31:29.315Z,74.56
2019-01-16T15:34:16.205Z,75.46
2019-01-16T15:37:02.973Z,75.32
2019-01-16T15:39:53.751Z,76.09
2019-01-16T15:42:41.706Z,75.36
2019-01-16T15:45:25.280Z,76.44
2019-01-16T15:48:14.664Z,76.42
2019-01-16T15:51:05.503Z,77.41
2019-01-16T15:53:46.572Z,77.90
2019-01-16T15:56:50.025Z,77.79
2019-01-16T15:59:39.326Z,77.38
2019-01-16T16:02:23.339Z,78.17
2019-01-16T16:05:10.047Z,78.45
2019-01-16T16:08:00.107Z,78.31
2019-01-16T16:11:03.242Z,79.01
2019-01-16T16:13:51.108Z,79.22
2019-01-16T16:16:45.010Z,79.74
2019-01-16T16:19:31.934Z,79.48
2019-01-16T16:22:25.607Z,80.17
2019-01-16T16:25:08.329Z,79.68
2019-01-16T16:27:53.444Z,80.41
2019-01-16T16:30:43.842Z,80.23
2019-01-16T16:33:34.748Z,80.43
2019-01-16T16:36:33.122Z,81.17
2019-01-16T16:39:30.027Z,80.89
2019-01-16T16:42:17.208Z,80.98
2019-01-16T16:45:04.902Z,80.93
2019-01-16T16:47:52.061Z,81.34
2019-01-16T16:50:58.520Z,81.84
2019-01-16T16:53:45.345Z,82.41
2019-01-16T16:56:37.630Z,82.58
2019-01-16T16:59:38.169Z,83.03
2019-01-16T17:02:22.487Z,82.93
2019-01-16T17:05:13.635Z,81.99
2019-01-16T17:08:16.762Z,82.78
2019-01-16T17:11:17.158Z,85.47
2019-01-16T17:14:08.018Z,81.13
2019-01-16T17:16:58.532Z,81.56
2019-01-16T17:19:58.794Z,82.20
2019-01-16T17:22:55.850Z,83.79
2019-01-16T17:25:42.718Z,83.53
2019-01-16T17:28:29.762Z,83.29
2019-01-16T17:31:16.966Z,84.11
2019-01-16T17:34:17.443Z,84.08
2019-01-16T17:37:08.577Z,84.44
2019-01-16T17:40:14.706Z,84.99
2019-01-16T17:43:02.781Z,85.36
2019-01-16T17:45:53.276Z,84.87
2019-01-16T17:48:33.000Z,84.39
2019-01-16T17:51:26.810Z,85.07
2019-01-16T17:54:17.953Z,84.49
2019-01-16T17:57:04.648Z,85.24
2019-01-16T17:59:51.543Z,85.05
2019-01-16T18:02:38.204Z,83.85
2019-01-16T18:05:29.044Z,84.71
2019-01-16T18:08:19.937Z,85.09
2019-01-16T18:11:00.359Z,85.49
2019-01-16T18:14:03.594Z,85.97
2019-01-16T18:16:54.569Z,84.41
2019-01-16T18:19:45.724Z,84.96
2019-01-16T18:22:37.758Z,84.72
2019-01-16T18:25:33.635Z,84.49
2019-01-16T18:28:20.469Z,84.80
2019-01-16T18:31:08.242Z,84.54
2019-01-16T18:34:14.348Z,84.83
2019-01-16T18:37:00.975Z,84.42
2019-01-16T18:39:51.589Z,84.68
2019-01-16T18:42:38.181Z,84.34
2019-01-16T18:45:29.495Z,84.15
2019-01-16T18:48:26.971Z,82.83
2019-01-16T18:51:14.832Z,83.03
2019-01-16T18:54:06.971Z,83.60
2019-01-16T18:56:51.257Z,83.27
2019-01-16T18:59:52.920Z,82.84
2019-01-16T19:02:41.470Z,82.80
2019-01-16T19:05:30.998Z,83.15
2019-01-16T19:08:22.090Z,83.03
2019-01-16T19:11:28.274Z,83.18
2019-01-16T19:14:19.481Z,82.83
2019-01-16T19:17:10.479Z,83.50
2019-01-16T19:19:57.297Z,83.52
2019-01-16T19:22:44.070Z,83.33
2019-01-16T19:25:32.228Z,83.85
2019-01-16T19:28:20.565Z,82.98
2019-01-16T19:31:07.951Z,82.93
2019-01-16T19:34:03.328Z,82.79
2019-01-16T19:36:56.378Z,82.69
2019-01-16T19:39:40.518Z,82.62
2019-01-16T19:42:21.867Z,83.24
2019-01-16T19:45:13.331Z,83.30
2019-01-16T19:47:55.295Z,83.86
2019-01-16T19:50:42.044Z,83.48
2019-01-16T19:53:20.249Z,83.44
2019-01-16T19:56:10.476Z,83.46
2019-01-16T19:58:51.008Z,83.04
2019-01-16T20:01:38.367Z,83.23
2019-01-16T20:04:28.860Z,83.46
2019-01-16T20:07:24.693Z,83.35
2019-01-16T20:10:11.527Z,83.46
2019-01-16T20:13:00.128Z,82.96
2019-01-16T20:15:47.008Z,83.19
2019-01-16T20:18:35.354Z,82.36
2019-01-16T20:21:39.005Z,82.83
2019-01-16T20:24:18.199Z,82.45
2019-01-16T20:27:10.485Z,82.10
2019-01-16T20:30:01.417Z,82.59
2019-01-16T20:32:51.784Z,82.45
2019-01-16T20:35:43.794Z,82.31
2019-01-16T20:38:36.617Z,82.69
2019-01-16T20:41:26.071Z,82.27
2019-01-16T20:44:11.076Z,82.06
2019-01-16T20:47:01.245Z,81.52
2019-01-16T20:49:48.506Z,81.12
2019-01-16T20:52:37.057Z,81.11
2019-01-16T20:55:28.281Z,80.82
2019-01-16T20:58:14.789Z,80.70
2019-01-16T21:01:08.734Z,80.13
2019-01-16T21:03:57.886Z,79.71
2019-01-16T21:06:41.520Z,80.01
2019-01-16T21:09:28.087Z,79.61
2019-01-16T21:12:25.456Z,80.18
2019-01-16T21:15:13.459Z,79.95
2019-01-16T21:18:09.721Z,80.25
2019-01-16T21:21:06.535Z,80.37
2019-01-16T21:24:06.886Z,80.25
2019-01-16T21:26:58.754Z,80.10
2019-01-16T21:29:42.878Z,79.82
2019-01-16T21:32:29.814Z,80.23
2019-01-16T21:35:17.923Z,79.98
2019-01-16T21:37:57.207Z,78.75
2019-01-16T21:40:48.032Z,79.34
2019-01-16T21:43:34.849Z,78.91
2019-01-16T21:46:42.189Z,78.74
2019-01-16T21:49:20.492Z,79.52
2019-01-16T21:52:01.008Z,79.13
2019-01-16T21:54:52.794Z,79.04
2019-01-16T21:57:39.722Z,79.45
2019-01-16T22:00:30.012Z,79.40
2019-01-16T22:03:33.327Z,78.76
2019-01-16T22:06:22.600Z,78.67
2019-01-16T22:09:22.615Z,79.19
2019-01-16T22:12:23.940Z,78.98
2019-01-16T22:15:14.671Z,79.87
2019-01-16T22:17:58.542Z,78.57
2019-01-16T22:20:40.736Z,79.20
2019-01-16T22:23:19.863Z,79.13
2019-01-16T22:26:10.936Z,78.86
2019-01-16T22:29:02.125Z,79.09
2019-01-16T22:31:53.140Z,78.58
2019-01-16T22:34:59.679Z,78.78
2019-01-16T22:37:46.234Z,78.70
2019-01-16T22:40:37.497Z,79.12
2019-01-16T22:43:25.552Z,79.05
2019-01-16T22:46:13.504Z,79.70
2019-01-16T22:49:13.737Z,79.34
2019-01-16T22:52:16.024Z,79.64
2019-01-16T22:55:03.974Z,80.41
2019-01-16T22:58:04.084Z,81.07
2019-01-16T23:00:55.698Z,80.39
2019-01-16T23:03:42.142Z,80.09
2019-01-16T23:06:32.899Z,80.21
2019-01-16T23:09:10.661Z,80.23
2019-01-16T23:11:51.525Z,79.99
2019-01-16T23:14:31.620Z,80.80
2019-01-16T23:17:22.791Z,81.14
2019-01-16T23:20:09.703Z,80.71
2019-01-16T23:23:02.497Z,80.85
2019-01-16T23:25:49.384Z,80.90
2019-01-16T23:28:46.634Z,81.48
2019-01-16T23:31:32.994Z,81.29
2019-01-16T23:34:24.255Z,81.90
2019-01-16T23:37:12.397Z,82.54
2019-01-16T23:39:59.242Z,82.68
2019-01-16T23:42:45.034Z,81.88
2019-01-16T23:45:31.723Z,82.25
2019-01-16T23:48:18.581Z,82.34
2019-01-16T23:51:15.680Z,82.43
2019-01-16T23:54:01.994Z,82.87
2019-01-16T23:56:45.045Z,82.77
2019-01-16T23:59:45.634Z,83.21
